Time;durP1;ratioP1;P1;durP2;ratioP2;P2;SDS_P1;SDS_P2;PMS_P1;PMS_P2;Temp;Humidity;BMP_temperature;BMP_pressure;BME280_temperature;BME280_humidity;BME280_pressure;Samples;Min_cycle;Max_cycle;Signal;HPM_P1;HPM_P2
2022/09/18 00:00:15;;;;;;;4.70;0.45;;;10.30;83.70;;;;;;4993335;28;20043;-78
2022/09/18 00:02:42;;;;;;;7.22;0.60;;;10.30;83.50;;;;;;4992452;28;20137;-78
2022/09/18 00:05:10;;;;;;;8.53;1.00;;;10.40;83.40;;;;;;4993593;28;20055;-78
2022/09/18 00:07:37;;;;;;;5.78;0.85;;;10.40;83.30;;;;;;4992676;28;20105;-78
2022/09/18 00:10:05;;;;;;;6.95;0.60;;;10.40;83.30;;;;;;4992171;28;20492;-78
2022/09/18 00:12:32;;;;;;;7.47;0.70;;;10.40;83.30;;;;;;4993719;28;20054;-78
2022/09/18 00:14:59;;;;;;;6.00;0.57;;;10.40;83.20;;;;;;4991966;28;20050;-78
2022/09/18 00:17:26;;;;;;;9.03;0.70;;;10.40;83.20;;;;;;4992193;28;20070;-78
2022/09/18 00:19:53;;;;;;;4.18;0.40;;;10.40;83.10;;;;;;4975473;28;20428;-78
2022/09/18 00:22:22;;;;;;;9.18;0.70;;;10.40;83.20;;;;;;4991933;28;20057;-78
2022/09/18 00:24:49;;;;;;;4.70;0.50;;;10.40;83.20;;;;;;4992095;28;20051;-78
2022/09/18 00:27:16;;;;;;;13.43;0.85;;;10.40;83.20;;;;;;4992021;28;20461;-79
2022/09/18 00:29:43;;;;;;;6.20;0.70;;;10.30;83.10;;;;;;4991057;28;20046;-78
2022/09/18 00:32:10;;;;;;;6.88;0.60;;;10.30;83.10;;;;;;4975188;28;20049;-78
2022/09/18 00:34:38;;;;;;;6.43;0.75;;;10.30;83.20;;;;;;4991818;28;20051;-78
2022/09/18 00:37:05;;;;;;;5.63;0.55;;;10.30;83.30;;;;;;4975532;28;20129;-78
2022/09/18 00:39:34;;;;;;;6.63;0.52;;;10.30;83.20;;;;;;4991661;28;20134;-78
2022/09/18 00:42:01;;;;;;;6.13;0.60;;;10.30;83.40;;;;;;4975415;28;20528;-78
2022/09/18 00:44:38;;;;;;;7.18;0.45;;;10.30;83.30;;;;;;4974880;28;20051;-78
2022/09/18 00:47:24;;;;;;;9.38;0.80;;;10.30;83.20;;;;;;4975040;28;20078;-79
2022/09/18 00:49:57;;;;;;;9.35;0.88;;;10.30;83.30;;;;;;4974751;28;20043;-78
2022/09/18 00:52:29;;;;;;;10.27;0.77;;;10.30;83.40;;;;;;4974913;28;20097;-79
2022/09/18 00:55:02;;;;;;;8.03;0.90;;;10.30;83.50;;;;;;4991337;28;20485;-78
2022/09/18 00:57:32;;;;;;;6.82;0.73;;;10.30;83.50;;;;;;4991284;28;20047;-78
2022/09/18 01:00:02;;;;;;;7.63;1.00;;;10.30;83.50;;;;;;4974486;28;20143;-78
2022/09/18 01:02:29;;;;;;;7.05;0.60;;;10.30;83.60;;;;;;4992069;28;20572;-78
2022/09/18 01:04:56;;;;;;;6.85;0.75;;;10.30;83.70;;;;;;4991196;28;20138;-78
2022/09/18 01:07:35;;;;;;;4.03;0.50;;;10.30;83.50;;;;;;4973637;28;20842;-78
2022/09/18 01:10:14;;;;;;;5.03;0.38;;;10.30;83.80;;;;;;4972984;28;20058;-78
2022/09/18 01:12:47;;;;;;;7.78;0.73;;;10.30;83.70;;;;;;4990998;28;20046;-78
2022/09/18 01:15:22;;;;;;;5.80;0.68;;;10.30;83.60;;;;;;4989408;28;20085;-78
2022/09/18 01:17:58;;;;;;;7.07;0.50;;;10.30;83.70;;;;;;4990311;28;20533;-78
2022/09/18 01:21:00;;;;;;;7.87;0.93;;;10.30;83.70;;;;;;4990465;28;20059;-78
2022/09/18 01:23:54;;;;;;;3.85;0.60;;;10.30;83.60;;;;;;4974434;28;20050;-79
2022/09/18 01:26:38;;;;;;;6.93;0.60;;;10.30;83.80;;;;;;4974826;28;20054;-78
2022/09/18 01:29:12;;;;;;;10.18;0.82;;;10.40;83.70;;;;;;4974001;28;20139;-78
2022/09/18 01:31:49;;;;;;;6.50;0.90;;;10.40;83.90;;;;;;4974674;28;20127;-78
2022/09/18 01:34:24;;;;;;;5.40;0.50;;;10.40;83.50;;;;;;4978388;28;20503;-78
2022/09/18 01:36:54;;;;;;;6.05;0.60;;;10.40;83.50;;;;;;4990907;28;20046;-78
2022/09/18 01:39:27;;;;;;;8.23;1.05;;;10.40;83.50;;;;;;4974492;28;21045;-78
2022/09/18 01:41:59;;;;;;;7.75;0.80;;;10.50;83.40;;;;;;4991238;28;20086;-78
2022/09/18 01:44:30;;;;;;;7.22;0.82;;;10.50;83.40;;;;;;4974699;28;20504;-78
2022/09/18 01:47:06;;;;;;;7.50;0.63;;;10.50;83.50;;;;;;4974484;28;20090;-78
2022/09/18 01:49:41;;;;;;;4.75;0.50;;;10.50;83.40;;;;;;4990783;28;20535;-78
2022/09/18 01:52:11;;;;;;;5.13;0.47;;;10.60;83.40;;;;;;4974550;28;20047;-78
2022/09/18 01:54:45;;;;;;;5.70;0.35;;;10.60;83.30;;;;;;4973989;28;20063;-78
2022/09/18 01:57:16;;;;;;;7.82;0.90;;;10.60;83.30;;;;;;4990593;28;20924;-78
2022/09/18 01:59:50;;;;;;;4.07;0.57;;;10.60;83.20;;;;;;4990394;28;20141;-78
2022/09/18 02:02:24;;;;;;;6.53;0.70;;;10.60;83.10;;;;;;4974586;28;20591;-78
2022/09/18 02:04:54;;;;;;;5.07;0.57;;;10.70;83.00;;;;;;4974674;28;20065;-79
2022/09/18 02:07:27;;;;;;;8.50;0.98;;;10.70;83.00;;;;;;4990663;28;20134;-78
2022/09/18 02:09:55;;;;;;;8.52;0.80;;;10.70;83.00;;;;;;4974068;28;20082;-79
2022/09/18 02:12:26;;;;;;;6.83;0.60;;;10.70;83.10;;;;;;4974139;28;20078;-78
2022/09/18 02:15:03;;;;;;;6.72;0.60;;;10.70;83.10;;;;;;4990543;28;20055;-78
2022/09/18 02:17:43;;;;;;;6.13;0.43;;;10.70;83.10;;;;;;4974540;28;20064;-79
2022/09/18 02:20:18;;;;;;;6.25;0.63;;;10.80;83.00;;;;;;4990353;28;20102;-78
2022/09/18 02:22:47;;;;;;;2.38;0.43;;;10.80;83.00;;;;;;4990662;28;20058;-79
2022/09/18 02:25:19;;;;;;;5.97;0.70;;;10.80;83.00;;;;;;4974061;28;20047;-79
2022/09/18 02:27:48;;;;;;;4.25;0.75;;;10.80;83.00;;;;;;4973760;28;20051;-78
2022/09/18 02:30:17;;;;;;;5.55;0.73;;;10.90;83.00;;;;;;4973789;28;20047;-78
2022/09/18 02:32:44;;;;;;;10.57;0.80;;;10.90;83.10;;;;;;4990244;28;20043;-78
2022/09/18 02:35:11;;;;;;;9.38;0.70;;;10.90;83.30;;;;;;4974460;28;20813;-78
2022/09/18 02:37:50;;;;;;;7.23;0.90;;;10.90;83.30;;;;;;4990615;28;20452;-78
2022/09/18 02:40:33;;;;;;;5.03;0.85;;;10.90;83.30;;;;;;4989947;28;20922;-79
2022/09/18 02:43:26;;;;;;;4.78;0.43;;;11.00;83.50;;;;;;4973839;28;20054;-78
2022/09/18 02:46:01;;;;;;;8.45;1.25;;;11.00;83.50;;;;;;4974064;28;20082;-79
2022/09/18 02:48:46;;;;;;;5.15;0.50;;;11.00;83.30;;;;;;4973938;28;20062;-78
2022/09/18 02:51:24;;;;;;;4.13;0.77;;;11.00;83.40;;;;;;4973548;28;20054;-78
2022/09/18 02:53:58;;;;;;;4.35;0.30;;;11.10;83.20;;;;;;4990511;28;20039;-78
2022/09/18 02:56:33;;;;;;;4.53;0.70;;;11.10;83.30;;;;;;4973676;28;20114;-79
2022/09/18 02:59:08;;;;;;;8.30;0.80;;;11.10;83.20;;;;;;4989620;28;20059;-79
2022/09/18 03:01:40;;;;;;;7.70;0.77;;;11.10;83.20;;;;;;4989620;28;20054;-78
2022/09/18 03:04:12;;;;;;;3.83;0.30;;;11.10;83.10;;;;;;4990063;28;20470;-78
2022/09/18 03:06:55;;;;;;;3.03;0.30;;;11.10;83.10;;;;;;4975215;28;20054;-78
2022/09/18 03:09:24;;;;;;;5.50;0.52;;;11.10;83.00;;;;;;4993193;28;20394;-78
2022/09/18 03:11:52;;;;;;;4.32;0.45;;;11.10;83.00;;;;;;4977181;28;20058;-78
2022/09/18 03:14:20;;;;;;;4.68;0.30;;;11.10;83.00;;;;;;4992989;28;20043;-78
2022/09/18 03:16:48;;;;;;;2.43;0.20;;;11.10;83.00;;;;;;4993306;28;21018;-78
2022/09/18 03:19:16;;;;;;;7.20;0.60;;;11.10;82.70;;;;;;4992634;28;20051;-78
2022/09/18 03:21:43;;;;;;;5.65;0.65;;;11.10;82.60;;;;;;4976897;28;20493;-78
2022/09/18 03:24:12;;;;;;;4.97;0.40;;;11.10;82.50;;;;;;4993191;28;20051;-78
2022/09/18 03:26:42;;;;;;;5.18;0.50;;;11.10;82.40;;;;;;4993309;28;21062;-78
2022/09/18 03:29:10;;;;;;;6.03;0.70;;;11.10;82.30;;;;;;4978840;28;20130;-78
2022/09/18 03:31:39;;;;;;;3.30;0.32;;;11.10;82.10;;;;;;4977031;28;20057;-79
2022/09/18 03:34:08;;;;;;;5.32;0.30;;;11.20;82.10;;;;;;4992932;28;20047;-78
2022/09/18 03:36:36;;;;;;;6.15;0.47;;;11.20;82.10;;;;;;4993013;28;20061;-78
2022/09/18 03:39:03;;;;;;;2.65;0.30;;;11.20;82.00;;;;;;4976355;28;20046;-78
2022/09/18 03:41:30;;;;;;;4.93;0.50;;;11.20;81.60;;;;;;4976639;28;20533;-79
2022/09/18 03:43:57;;;;;;;5.88;0.52;;;11.20;81.60;;;;;;4976385;28;20054;-78
2022/09/18 03:46:25;;;;;;;5.80;0.30;;;11.20;81.50;;;;;;4976524;28;20054;-78
2022/09/18 03:48:55;;;;;;;3.88;0.30;;;11.20;81.20;;;;;;4976117;28;20110;-79
2022/09/18 03:51:25;;;;;;;4.80;0.40;;;11.20;81.00;;;;;;4992830;28;20502;-79
2022/09/18 03:53:53;;;;;;;5.53;0.50;;;11.20;81.00;;;;;;4975894;28;20428;-78
2022/09/18 03:56:31;;;;;;;6.80;0.57;;;11.20;81.00;;;;;;4992818;28;20447;-79
2022/09/18 03:59:23;;;;;;;3.92;0.40;;;11.20;81.00;;;;;;4975726;28;20074;-78
2022/09/18 04:01:58;;;;;;;3.25;0.35;;;11.20;80.90;;;;;;4992806;28;20053;-79
2022/09/18 04:04:28;;;;;;;6.57;0.50;;;11.20;80.90;;;;;;4992280;28;20996;-78
2022/09/18 04:07:15;;;;;;;4.57;0.30;;;11.10;81.00;;;;;;4992525;28;20062;-79
2022/09/18 04:09:45;;;;;;;2.90;0.20;;;11.10;81.20;;;;;;4992477;28;20046;-78
2022/09/18 04:12:12;;;;;;;4.28;0.30;;;11.10;81.30;;;;;;4976205;28;20046;-79
2022/09/18 04:14:42;;;;;;;5.32;0.47;;;11.10;81.40;;;;;;4992187;28;20051;-79
2022/09/18 04:17:10;;;;;;;5.70;0.52;;;11.10;81.50;;;;;;4975735;28;20054;-78
2022/09/18 04:19:37;;;;;;;5.03;0.60;;;11.10;81.50;;;;;;4975031;28;20055;-79
2022/09/18 04:22:04;;;;;;;2.42;0.20;;;11.10;81.60;;;;;;4975806;28;20532;-79
2022/09/18 04:24:34;;;;;;;3.88;0.47;;;11.10;81.80;;;;;;4976298;28;20050;-78
2022/09/18 04:27:03;;;;;;;5.95;0.50;;;11.10;81.90;;;;;;4991933;28;21004;-79
2022/09/18 04:29:33;;;;;;;4.00;0.60;;;11.10;82.40;;;;;;4975300;28;20566;-78
2022/09/18 04:32:01;;;;;;;6.30;0.60;;;11.10;82.40;;;;;;4975819;28;20050;-78
2022/09/18 04:34:29;;;;;;;6.63;0.68;;;11.10;82.50;;;;;;4975534;28;20047;-79
2022/09/18 04:36:56;;;;;;;3.05;0.20;;;11.10;82.80;;;;;;4975911;28;20057;-78
2022/09/18 04:39:27;;;;;;;5.65;0.57;;;11.10;82.60;;;;;;4975196;28;20146;-78
2022/09/18 04:42:00;;;;;;;7.28;0.50;;;11.10;82.80;;;;;;4991974;28;20054;-79
2022/09/18 04:44:27;;;;;;;4.50;0.50;;;11.10;82.60;;;;;;4975542;28;20082;-79
2022/09/18 04:46:54;;;;;;;5.45;0.82;;;11.10;82.90;;;;;;4992038;28;20157;-79
2022/09/18 04:49:21;;;;;;;6.10;0.63;;;11.10;82.90;;;;;;4975716;28;20108;-79
2022/09/18 04:51:49;;;;;;;5.78;0.40;;;11.10;83.00;;;;;;4991931;28;20102;-78
2022/09/18 04:57:46;;;;;;;6.90;0.50;;;11.10;83.30;;;;;;5007799;28;20053;-79
2022/09/18 05:00:14;;;;;;;4.75;0.35;;;11.10;83.80;;;;;;4992687;28;20128;-78
2022/09/18 05:02:41;;;;;;;3.08;0.30;;;11.10;83.90;;;;;;4991360;28;20047;-79
2022/09/18 05:05:09;;;;;;;4.43;0.40;;;11.10;83.70;;;;;;4974921;28;20074;-78
2022/09/18 05:07:38;;;;;;;5.40;0.70;;;11.10;83.60;;;;;;4975199;28;20623;-78
2022/09/18 05:10:07;;;;;;;4.33;0.40;;;11.10;83.80;;;;;;4991366;28;20056;-78
2022/09/18 05:12:34;;;;;;;3.22;0.20;;;11.10;83.70;;;;;;4975520;28;20054;-78
2022/09/18 05:15:03;;;;;;;4.38;0.35;;;11.10;83.70;;;;;;4991120;28;20047;-78
2022/09/18 05:17:31;;;;;;;2.85;0.20;;;11.10;83.80;;;;;;4974886;28;20043;-78
2022/09/18 05:20:01;;;;;;;4.45;0.50;;;11.10;83.70;;;;;;4974470;28;20061;-78
2022/09/18 05:22:35;;;;;;;9.47;0.70;;;11.10;83.70;;;;;;4974852;28;20082;-79
2022/09/18 05:25:04;;;;;;;3.60;0.40;;;11.10;83.90;;;;;;4991186;28;20542;-79
2022/09/18 05:27:32;;;;;;;5.45;0.47;;;11.10;83.90;;;;;;5007228;28;20051;-78
2022/09/18 05:29:59;;;;;;;4.78;0.70;;;11.10;84.50;;;;;;5000077;28;20553;-78
2022/09/18 05:32:43;;;;;;;5.38;0.50;;;11.10;84.20;;;;;;4955229;28;20057;-77
2022/09/18 05:35:10;;;;;;;6.87;0.50;;;11.10;84.10;;;;;;4987669;28;20138;-78
2022/09/18 05:37:39;;;;;;;3.10;0.40;;;11.10;84.00;;;;;;4972786;28;20130;-78
2022/09/18 05:40:08;;;;;;;5.13;0.47;;;11.10;84.30;;;;;;4970742;28;20063;-78
2022/09/18 05:42:35;;;;;;;3.38;0.30;;;11.10;84.30;;;;;;4971424;28;20051;-81
2022/09/18 05:45:04;;;;;;;5.45;0.50;;;11.10;84.30;;;;;;4953815;28;20049;-78
2022/09/18 05:47:34;;;;;;;5.00;0.37;;;11.10;84.50;;;;;;4953847;28;20058;-79
2022/09/18 05:50:03;;;;;;;4.53;0.55;;;11.10;84.40;;;;;;4969406;28;20425;-79
2022/09/18 05:52:30;;;;;;;3.97;0.63;;;11.10;84.60;;;;;;4953308;28;20043;-79
2022/09/18 05:54:58;;;;;;;4.50;0.50;;;11.10;84.60;;;;;;4969699;28;20050;-79
2022/09/18 05:57:25;;;;;;;3.70;0.40;;;11.10;84.70;;;;;;4969800;28;20942;-79
2022/09/18 05:59:52;;;;;;;2.77;0.20;;;11.10;84.70;;;;;;4971416;28;20047;-79
2022/09/18 06:02:19;;;;;;;3.25;0.38;;;11.10;85.00;;;;;;4955121;28;20806;-79
2022/09/18 06:05:14;;;;;;;6.55;0.40;;;11.10;85.00;;;;;;4969897;28;20054;-79
2022/09/18 06:07:41;;;;;;;6.68;0.50;;;11.10;85.00;;;;;;4996966;28;20134;-79
2022/09/18 06:10:08;;;;;;;4.40;0.40;;;11.10;84.70;;;;;;4996151;28;20055;-79
2022/09/18 06:12:35;;;;;;;3.07;0.30;;;11.10;84.60;;;;;;4983348;28;20051;-80
2022/09/18 06:15:03;;;;;;;3.15;0.30;;;11.10;84.70;;;;;;4973771;28;20964;-81
2022/09/18 06:17:30;;;;;;;4.57;0.47;;;11.10;84.60;;;;;;4990127;28;20070;-81
2022/09/18 06:20:01;;;;;;;5.53;0.40;;;11.20;84.80;;;;;;4973093;28;20062;-77
2022/09/18 06:22:32;;;;;;;2.90;0.38;;;11.20;84.70;;;;;;4972668;28;20046;-77
2022/09/18 06:25:00;;;;;;;3.87;0.43;;;11.10;84.80;;;;;;5003406;28;20054;-78
2022/09/18 06:27:33;;;;;;;4.32;0.50;;;11.20;84.70;;;;;;4972755;28;20047;-76
2022/09/18 06:30:01;;;;;;;3.08;0.38;;;11.10;84.80;;;;;;5001587;28;20054;-75
2022/09/18 06:32:32;;;;;;;4.43;0.55;;;11.10;84.70;;;;;;4971079;28;20055;-76
2022/09/18 06:34:59;;;;;;;3.53;0.38;;;11.10;85.10;;;;;;4990398;28;20063;-75
2022/09/18 06:37:26;;;;;;;4.47;0.43;;;11.10;84.90;;;;;;4989493;28;20058;-76
2022/09/18 06:40:15;;;;;;;4.07;0.40;;;11.10;85.00;;;;;;4975922;28;20150;-76
2022/09/18 06:43:15;;;;;;;4.55;0.60;;;11.10;85.00;;;;;;4979872;28;20050;-76
2022/09/18 06:46:00;;;;;;;5.95;0.50;;;11.10;85.10;;;;;;4992869;28;20074;-75
2022/09/18 06:48:35;;;;;;;5.15;0.60;;;11.10;85.00;;;;;;4992992;28;20055;-76
2022/09/18 06:51:02;;;;;;;3.63;0.30;;;11.10;85.40;;;;;;4974797;28;20086;-75
2022/09/18 06:53:37;;;;;;;4.93;0.40;;;11.10;85.30;;;;;;4975623;28;20074;-80
2022/09/18 06:56:06;;;;;;;4.95;0.50;;;11.10;85.50;;;;;;4975452;28;20054;-78
2022/09/18 06:58:35;;;;;;;3.33;0.30;;;11.10;85.40;;;;;;4990544;28;20054;-79
2022/09/18 07:01:03;;;;;;;3.83;0.43;;;11.10;85.60;;;;;;4973900;28;20455;-82
2022/09/18 07:03:38;;;;;;;5.23;0.47;;;11.10;85.30;;;;;;4974135;28;20050;-76
2022/09/18 07:06:15;;;;;;;6.25;0.60;;;11.10;85.40;;;;;;4974063;28;20091;-78
2022/09/18 07:08:44;;;;;;;5.95;0.47;;;11.10;85.50;;;;;;4990363;28;20158;-74
2022/09/18 07:11:19;;;;;;;5.47;0.50;;;11.10;86.00;;;;;;4974742;28;20683;-81
2022/09/18 07:13:47;;;;;;;3.75;0.30;;;11.00;85.80;;;;;;4992014;28;20138;-75
2022/09/18 07:16:14;;;;;;;3.37;0.33;;;11.10;85.90;;;;;;4975902;28;20051;-77
2022/09/18 07:18:43;;;;;;;3.80;0.40;;;11.00;86.10;;;;;;4974990;28;20047;-81
2022/09/18 07:21:12;;;;;;;5.40;0.95;;;11.00;86.10;;;;;;4974686;28;20079;-81
2022/09/18 07:23:42;;;;;;;4.97;0.35;;;11.00;86.20;;;;;;4975139;28;20588;-80
2022/09/18 07:26:09;;;;;;;5.32;0.40;;;11.00;86.10;;;;;;4974932;28;20058;-79
2022/09/18 07:28:38;;;;;;;6.03;0.50;;;11.00;86.00;;;;;;4975360;28;20047;-77
2022/09/18 07:31:20;;;;;;;4.07;0.40;;;11.10;86.00;;;;;;4973326;28;20047;-82
2022/09/18 07:33:52;;;;;;;8.35;0.73;;;11.10;86.10;;;;;;4973771;28;20043;-78
2022/09/18 07:36:20;;;;;;;4.85;0.70;;;11.10;86.10;;;;;;4973660;28;20912;-80
2022/09/18 07:38:51;;;;;;;5.95;0.50;;;11.10;86.40;;;;;;4989333;28;20047;-78
2022/09/18 07:41:22;;;;;;;5.13;0.50;;;11.10;86.30;;;;;;4990471;28;20065;-79
2022/09/18 07:43:51;;;;;;;4.22;0.40;;;11.10;86.30;;;;;;4974531;28;20051;-77
2022/09/18 07:46:19;;;;;;;3.13;0.50;;;11.10;86.50;;;;;;4972985;28;20141;-77
2022/09/18 07:48:48;;;;;;;4.88;0.50;;;11.10;86.70;;;;;;4974334;28;20051;-76
2022/09/18 07:51:20;;;;;;;5.10;0.30;;;11.10;86.50;;;;;;4974392;28;20055;-76
2022/09/18 07:53:49;;;;;;;6.87;0.63;;;11.00;86.70;;;;;;4972307;28;20058;-78
2022/09/18 07:56:24;;;;;;;3.63;0.60;;;11.00;86.70;;;;;;4972885;28;21003;-76
2022/09/18 07:58:52;;;;;;;4.53;0.60;;;11.00;86.60;;;;;;4973098;28;20109;-76
2022/09/18 08:01:25;;;;;;;4.22;0.40;;;11.00;86.40;;;;;;4989220;28;20067;-75
2022/09/18 08:03:54;;;;;;;7.05;0.50;;;11.00;86.20;;;;;;5005646;28;20046;-75
2022/09/18 08:06:21;;;;;;;5.00;0.40;;;11.00;86.50;;;;;;4989291;28;20047;-78
2022/09/18 08:09:04;;;;;;;1.92;0.20;;;11.00;86.40;;;;;;4989367;28;20576;-78
2022/09/18 08:11:52;;;;;;;4.43;0.50;;;10.90;86.30;;;;;;4989814;28;20109;-77
2022/09/18 08:14:48;;;;;;;1.80;0.20;;;10.90;86.30;;;;;;4971763;28;20046;-77
2022/09/18 08:17:30;;;;;;;6.85;0.85;;;10.90;86.40;;;;;;4969938;28;20122;-79
2022/09/18 08:20:19;;;;;;;3.80;0.40;;;10.90;86.60;;;;;;4973207;28;20065;-78
2022/09/18 08:22:53;;;;;;;3.90;0.40;;;10.90;86.70;;;;;;4970957;28;20129;-77
2022/09/18 08:25:26;;;;;;;3.85;0.50;;;10.90;86.60;;;;;;4970878;28;20055;-78
2022/09/18 08:27:53;;;;;;;3.33;0.45;;;10.90;86.50;;;;;;4987050;28;20043;-79
2022/09/18 08:30:31;;;;;;;2.28;0.28;;;10.90;86.50;;;;;;4970339;28;21004;-81
2022/09/18 08:33:05;;;;;;;3.43;0.40;;;10.90;86.60;;;;;;4970876;28;20142;-81
2022/09/18 08:35:32;;;;;;;3.47;0.50;;;10.90;86.60;;;;;;4986917;28;20506;-81
2022/09/18 08:38:10;;;;;;;4.60;0.55;;;10.90;86.70;;;;;;4984701;28;20488;-80
2022/09/18 08:41:26;;;;;;;3.05;0.22;;;10.90;87.10;;;;;;4989520;28;20062;-81
2022/09/18 08:44:03;;;;;;;3.60;0.70;;;10.90;87.20;;;;;;4974149;28;20058;-80
2022/09/18 08:46:37;;;;;;;5.77;0.60;;;10.90;87.10;;;;;;4974347;28;20504;-80
2022/09/18 08:49:19;;;;;;;3.40;0.40;;;10.90;87.00;;;;;;4973115;28;20071;-80
2022/09/18 08:51:54;;;;;;;4.05;1.27;;;11.00;87.30;;;;;;4973852;28;20053;-76
2022/09/18 08:54:29;;;;;;;3.80;0.45;;;11.00;87.20;;;;;;4989669;28;20493;-80
2022/09/18 08:57:24;;;;;;;5.85;0.68;;;11.00;87.20;;;;;;4987434;28;20047;-80
2022/09/18 09:00:08;;;;;;;3.83;0.40;;;11.00;87.10;;;;;;4986544;28;20050;-80
2022/09/18 09:02:42;;;;;;;3.40;0.50;;;11.00;87.50;;;;;;4970793;28;20051;-80
2022/09/18 09:05:13;;;;;;;4.28;0.60;;;11.00;87.60;;;;;;4981600;28;20050;-80
2022/09/18 09:08:07;;;;;;;4.55;0.43;;;11.10;87.50;;;;;;4974033;28;20070;-80
2022/09/18 09:10:42;;;;;;;4.63;0.50;;;11.10;87.40;;;;;;4975194;28;20106;-80
2022/09/18 09:13:45;;;;;;;3.33;0.40;;;11.10;87.40;;;;;;4986239;28;20629;-80
2022/09/18 09:16:16;;;;;;;2.67;0.52;;;11.10;87.30;;;;;;4991611;28;20055;-81
2022/09/18 09:18:58;;;;;;;2.30;0.30;;;11.10;87.30;;;;;;4988745;28;20055;-80
2022/09/18 09:21:44;;;;;;;3.85;0.30;;;11.10;87.40;;;;;;4988677;28;20710;-80
2022/09/18 09:24:30;;;;;;;4.13;0.35;;;11.10;87.50;;;;;;4975171;28;20046;-80
2022/09/18 09:27:22;;;;;;;5.77;0.53;;;11.10;87.50;;;;;;4975300;28;20051;-80
2022/09/18 09:30:12;;;;;;;1.35;0.32;;;11.10;87.60;;;;;;5007039;28;20425;-80
2022/09/18 09:33:07;;;;;;;3.65;0.38;;;11.20;87.40;;;;;;4929676;28;23984;-80
2022/09/18 09:35:48;;;;;;;4.15;0.35;;;11.20;87.40;;;;;;4989698;28;20054;-80
2022/09/18 09:38:37;;;;;;;3.00;0.30;;;11.20;87.30;;;;;;4972347;28;20425;-81
2022/09/18 09:41:16;;;;;;;1.63;0.10;;;11.30;87.30;;;;;;5004259;28;20061;-81
2022/09/18 09:43:49;;;;;;;2.33;0.32;;;11.30;87.70;;;;;;4981215;28;20134;-80
2022/09/18 09:46:30;;;;;;;2.92;0.30;;;11.30;87.50;;;;;;4974648;28;20524;-81
2022/09/18 09:49:04;;;;;;;2.88;0.30;;;11.30;87.60;;;;;;4974571;28;20782;-80
2022/09/18 09:51:43;;;;;;;4.18;0.68;;;11.30;87.70;;;;;;4991250;28;20130;-80
2022/09/18 09:54:11;;;;;;;3.43;0.30;;;11.30;87.90;;;;;;4991179;28;20142;-81
2022/09/18 09:56:46;;;;;;;4.88;0.43;;;11.30;88.00;;;;;;4974964;28;20062;-81
2022/09/18 09:59:23;;;;;;;4.28;0.50;;;11.30;88.20;;;;;;4974763;28;20047;-81
2022/09/18 10:02:32;;;;;;;3.92;0.57;;;11.30;88.00;;;;;;4991033;28;20050;-82
2022/09/18 10:05:10;;;;;;;5.22;0.40;;;11.40;87.90;;;;;;5007032;28;20050;-82
2022/09/18 10:07:46;;;;;;;4.17;0.60;;;11.40;87.80;;;;;;4990627;28;20070;-79
2022/09/18 10:10:21;;;;;;;2.88;0.25;;;11.40;87.80;;;;;;4990492;28;20138;-79
2022/09/18 10:12:53;;;;;;;4.18;0.30;;;11.40;88.00;;;;;;4974009;28;20046;-79
2022/09/18 10:15:34;;;;;;;3.17;0.47;;;11.40;87.90;;;;;;4973977;28;20137;-80
2022/09/18 10:18:09;;;;;;;5.38;0.60;;;11.40;87.80;;;;;;4973456;28;20127;-81
2022/09/18 10:20:37;;;;;;;2.03;0.30;;;11.40;87.70;;;;;;4973149;28;20055;-78
2022/09/18 10:23:11;;;;;;;2.33;0.30;;;11.40;87.60;;;;;;4973881;28;20055;-82
2022/09/18 10:25:43;;;;;;;5.43;0.50;;;11.40;87.60;;;;;;4972554;28;20054;-82
2022/09/18 10:28:12;;;;;;;4.00;0.55;;;11.40;87.80;;;;;;4972609;28;20877;-82
2022/09/18 10:30:57;;;;;;;9.07;0.50;;;11.40;87.70;;;;;;4988772;28;20077;-82
2022/09/18 10:33:33;;;;;;;5.60;0.40;;;11.40;88.00;;;;;;4972923;28;20054;-82
2022/09/18 10:36:14;;;;;;;7.03;0.43;;;11.40;88.20;;;;;;4985955;28;20098;-83
2022/09/18 10:38:42;;;;;;;3.35;0.40;;;11.40;87.90;;;;;;4988986;28;20054;-81
2022/09/18 10:41:27;;;;;;;3.70;0.30;;;11.50;88.20;;;;;;4975574;28;20050;-82
2022/09/18 10:44:06;;;;;;;4.28;0.30;;;11.50;88.00;;;;;;4974377;28;20051;-82
2022/09/18 10:46:39;;;;;;;2.53;0.40;;;11.50;88.20;;;;;;4962889;28;20049;-82
2022/09/18 10:49:18;;;;;;;6.18;0.60;;;11.50;88.10;;;;;;4992028;28;20063;-83
2022/09/18 10:51:46;;;;;;;2.30;0.35;;;11.50;88.00;;;;;;4974184;28;20090;-83
2022/09/18 10:54:21;;;;;;;5.45;0.68;;;11.50;87.70;;;;;;4990723;28;20847;-84
2022/09/18 10:57:25;;;;;;;3.08;0.32;;;11.50;87.60;;;;;;4990529;28;20537;-82
2022/09/18 10:59:53;;;;;;;7.70;0.57;;;11.50;87.40;;;;;;4973317;28;20058;-81
2022/09/18 11:02:25;;;;;;;3.72;0.40;;;11.50;87.20;;;;;;4974079;28;20086;-84
2022/09/18 11:04:54;;;;;;;3.00;0.55;;;11.50;87.00;;;;;;4974017;28;20046;-84
2022/09/18 11:07:25;;;;;;;2.58;0.30;;;11.50;86.90;;;;;;4990286;28;20532;-83
2022/09/18 11:09:54;;;;;;;1.05;0.20;;;11.50;86.40;;;;;;4973791;28;20536;-83
2022/09/18 11:12:25;;;;;;;4.50;0.40;;;11.50;86.60;;;;;;4973375;28;20043;-79
2022/09/18 11:15:01;;;;;;;4.25;0.50;;;11.50;86.80;;;;;;4973036;28;20055;-79
2022/09/18 11:17:30;;;;;;;5.55;0.60;;;11.50;86.90;;;;;;4974514;28;21123;-79
2022/09/18 11:20:39;;;;;;;4.50;0.40;;;11.50;86.90;;;;;;5005020;28;20575;-79
2022/09/18 11:23:28;;;;;;;2.53;0.20;;;11.50;86.80;;;;;;4980456;28;20058;-79
2022/09/18 11:26:17;;;;;;;4.97;0.47;;;11.50;86.60;;;;;;5004065;28;20134;-80
2022/09/18 11:28:58;;;;;;;3.35;0.30;;;11.50;86.30;;;;;;4990534;28;20138;-79
2022/09/18 11:31:36;;;;;;;2.22;0.25;;;11.50;86.30;;;;;;4991164;28;20138;-79
2022/09/18 11:34:04;;;;;;;7.97;0.60;;;11.50;86.50;;;;;;4990922;28;20485;-79
2022/09/18 11:36:39;;;;;;;4.95;0.57;;;11.50;86.50;;;;;;5007660;28;20497;-79
2022/09/18 11:39:13;;;;;;;5.60;0.83;;;11.50;86.90;;;;;;4992660;28;20125;-80
2022/09/18 11:41:42;;;;;;;4.47;0.57;;;11.50;86.90;;;;;;5008943;28;20081;-79
2022/09/18 11:44:16;;;;;;;5.70;0.60;;;11.50;86.60;;;;;;4992730;28;20061;-79
2022/09/18 11:46:55;;;;;;;4.47;0.65;;;11.60;86.50;;;;;;4992913;28;20051;-79
2022/09/18 11:49:28;;;;;;;2.97;0.30;;;11.60;86.60;;;;;;4975823;28;20159;-79
2022/09/18 11:51:57;;;;;;;5.20;0.60;;;11.70;86.60;;;;;;4992560;28;20580;-79
2022/09/18 11:54:36;;;;;;;6.57;0.82;;;11.70;86.50;;;;;;4976547;28;20133;-79
2022/09/18 11:57:16;;;;;;;3.90;0.70;;;11.70;86.60;;;;;;4992681;28;20055;-80
2022/09/18 11:59:51;;;;;;;8.13;0.60;;;11.70;86.90;;;;;;4992428;28;20576;-80
2022/09/18 12:02:26;;;;;;;8.30;0.70;;;11.80;86.60;;;;;;4976331;28;20540;-79
2022/09/18 12:05:00;;;;;;;5.00;0.60;;;11.80;86.50;;;;;;4976454;28;20047;-79
2022/09/18 12:07:34;;;;;;;3.15;0.40;;;11.90;86.50;;;;;;4992879;28;20190;-79
2022/09/18 12:10:11;;;;;;;5.85;0.63;;;11.90;86.60;;;;;;4976293;28;20161;-80
2022/09/18 12:12:45;;;;;;;7.38;0.82;;;11.90;86.50;;;;;;4976002;28;20054;-79
2022/09/18 12:15:17;;;;;;;7.32;0.60;;;11.90;86.40;;;;;;4976105;28;20545;-79
2022/09/18 12:17:50;;;;;;;5.13;0.43;;;12.00;86.40;;;;;;4992862;28;20051;-79
2022/09/18 12:20:22;;;;;;;3.58;0.30;;;12.10;86.20;;;;;;4976121;28;20105;-79
2022/09/18 12:22:54;;;;;;;7.43;1.23;;;12.10;86.00;;;;;;4976045;28;20055;-79
2022/09/18 12:25:26;;;;;;;6.57;0.93;;;12.10;86.00;;;;;;4976209;28;20057;-80
2022/09/18 12:28:28;;;;;;;5.38;0.75;;;12.20;86.00;;;;;;4975955;28;20501;-79
2022/09/18 12:31:02;;;;;;;4.20;0.80;;;12.30;85.90;;;;;;4991854;28;20058;-80
2022/09/18 12:33:37;;;;;;;5.55;0.50;;;12.30;85.90;;;;;;4975685;28;20058;-80
2022/09/18 12:36:32;;;;;;;3.95;0.50;;;12.30;85.90;;;;;;4992173;28;20130;-79
2022/09/18 12:39:10;;;;;;;5.50;0.60;;;12.40;84.70;;;;;;4987483;28;20507;-80
2022/09/18 12:41:50;;;;;;;10.07;1.00;;;12.50;84.70;;;;;;4991671;28;20117;-79
2022/09/18 12:44:58;;;;;;;2.93;0.50;;;12.50;84.20;;;;;;5008384;28;20133;-79
2022/09/18 12:47:43;;;;;;;7.40;0.52;;;12.50;83.90;;;;;;4991378;28;20414;-78
2022/09/18 12:50:34;;;;;;;4.65;0.50;;;12.50;84.00;;;;;;4991674;28;20169;-78
2022/09/18 12:53:17;;;;;;;3.03;0.30;;;12.50;83.90;;;;;;5008255;28;20051;-79
2022/09/18 12:56:00;;;;;;;5.07;0.77;;;12.60;83.20;;;;;;5007550;28;20509;-78
2022/09/18 12:58:50;;;;;;;6.23;0.50;;;12.60;82.90;;;;;;4991674;28;20520;-79
2022/09/18 13:01:27;;;;;;;4.88;0.45;;;12.60;82.60;;;;;;4993051;28;20177;-79
2022/09/18 13:04:03;;;;;;;8.70;0.90;;;12.70;82.00;;;;;;4993062;28;20610;-78
2022/09/18 13:06:38;;;;;;;5.60;0.47;;;12.60;82.20;;;;;;4993110;28;20085;-79
2022/09/18 13:09:17;;;;;;;6.15;0.47;;;12.70;81.50;;;;;;4991484;28;20133;-79
2022/09/18 13:11:49;;;;;;;5.33;0.60;;;12.70;82.00;;;;;;4991233;28;20432;-79
2022/09/18 13:14:21;;;;;;;4.55;0.65;;;12.60;81.00;;;;;;4990962;28;20117;-79
2022/09/18 13:16:53;;;;;;;5.78;0.50;;;12.70;80.50;;;;;;4991094;28;20591;-79
2022/09/18 13:19:26;;;;;;;6.38;0.57;;;12.60;79.80;;;;;;5007720;28;20092;-81
2022/09/18 13:21:56;;;;;;;5.07;0.50;;;12.50;79.30;;;;;;4990243;28;20062;-79
2022/09/18 13:24:27;;;;;;;2.90;0.20;;;12.50;79.00;;;;;;4988841;28;20057;-79